sensor_id;sensor_type;location;lat;lon;timestamp;P1;durP1;ratioP1;P2;durP2;ratioP2
3698;SDS011;1865;50.918;7.092;2023-07-02T00:01:30;10.90;;;3.50;;
3698;SDS011;1865;50.918;7.092;2023-07-02T00:03:56;12.20;;;3.53;;
3698;SDS011;1865;50.918;7.092;2023-07-02T00:06:21;12.63;;;3.53;;
3698;SDS011;1865;50.918;7.092;2023-07-02T00:08:47;10.80;;;3.40;;
3698;SDS011;1865;50.918;7.092;2023-07-02T00:11:15;10.20;;;3.07;;
3698;SDS011;1865;50.918;7.092;2023-07-02T00:13:41;10.40;;;3.33;;
3698;SDS011;1865;50.918;7.092;2023-07-02T00:16:06;8.80;;;2.70;;
3698;SDS011;1865;50.918;7.092;2023-07-02T00:18:32;11.10;;;3.50;;
3698;SDS011;1865;50.918;7.092;2023-07-02T00:21:01;7.73;;;3.00;;
3698;SDS011;1865;50.918;7.092;2023-07-02T00:23:28;9.50;;;3.13;;
3698;SDS011;1865;50.918;7.092;2023-07-02T00:25:54;12.50;;;3.70;;
3698;SDS011;1865;50.918;7.092;2023-07-02T00:28:19;11.23;;;3.40;;
3698;SDS011;1865;50.918;7.092;2023-07-02T00:30:45;9.90;;;3.33;;
3698;SDS011;1865;50.918;7.092;2023-07-02T00:33:10;12.10;;;3.30;;
3698;SDS011;1865;50.918;7.092;2023-07-02T00:35:36;8.60;;;3.00;;
3698;SDS011;1865;50.918;7.092;2023-07-02T00:38:02;9.00;;;3.20;;
3698;SDS011;1865;50.918;7.092;2023-07-02T00:40:28;13.77;;;3.27;;
3698;SDS011;1865;50.918;7.092;2023-07-02T00:42:53;13.17;;;4.20;;
3698;SDS011;1865;50.918;7.092;2023-07-02T00:45:19;9.97;;;3.50;;
3698;SDS011;1865;50.918;7.092;2023-07-02T00:47:44;9.50;;;3.10;;
3698;SDS011;1865;50.918;7.092;2023-07-02T00:50:10;10.77;;;2.97;;
3698;SDS011;1865;50.918;7.092;2023-07-02T00:52:36;11.77;;;3.60;;
3698;SDS011;1865;50.918;7.092;2023-07-02T00:55:03;12.03;;;3.13;;
3698;SDS011;1865;50.918;7.092;2023-07-02T00:57:29;14.13;;;3.40;;
3698;SDS011;1865;50.918;7.092;2023-07-02T00:59:58;8.60;;;3.17;;
3698;SDS011;1865;50.918;7.092;2023-07-02T01:02:27;9.50;;;3.37;;
3698;SDS011;1865;50.918;7.092;2023-07-02T01:04:54;7.90;;;2.93;;
3698;SDS011;1865;50.918;7.092;2023-07-02T01:07:24;17.53;;;2.97;;
3698;SDS011;1865;50.918;7.092;2023-07-02T01:09:50;8.73;;;3.13;;
3698;SDS011;1865;50.918;7.092;2023-07-02T01:12:16;13.37;;;3.63;;
3698;SDS011;1865;50.918;7.092;2023-07-02T01:14:44;10.40;;;3.27;;
3698;SDS011;1865;50.918;7.092;2023-07-02T01:17:13;10.90;;;4.30;;
3698;SDS011;1865;50.918;7.092;2023-07-02T01:19:44;11.80;;;3.50;;
3698;SDS011;1865;50.918;7.092;2023-07-02T01:22:21;8.43;;;3.40;;
3698;SDS011;1865;50.918;7.092;2023-07-02T01:24:48;13.20;;;4.47;;
3698;SDS011;1865;50.918;7.092;2023-07-02T01:27:15;17.30;;;4.90;;
3698;SDS011;1865;50.918;7.092;2023-07-02T01:29:41;15.27;;;4.40;;
3698;SDS011;1865;50.918;7.092;2023-07-02T01:32:09;18.93;;;5.17;;
3698;SDS011;1865;50.918;7.092;2023-07-02T01:34:35;15.23;;;4.60;;
3698;SDS011;1865;50.918;7.092;2023-07-02T01:37:02;13.27;;;4.73;;
3698;SDS011;1865;50.918;7.092;2023-07-02T01:39:28;18.23;;;4.53;;
3698;SDS011;1865;50.918;7.092;2023-07-02T01:41:54;13.60;;;4.90;;
3698;SDS011;1865;50.918;7.092;2023-07-02T01:44:21;18.53;;;5.60;;
3698;SDS011;1865;50.918;7.092;2023-07-02T01:46:47;20.07;;;6.00;;
3698;SDS011;1865;50.918;7.092;2023-07-02T01:49:14;19.27;;;7.10;;
3698;SDS011;1865;50.918;7.092;2023-07-02T01:51:40;21.10;;;7.87;;
3698;SDS011;1865;50.918;7.092;2023-07-02T01:54:09;21.40;;;7.17;;
3698;SDS011;1865;50.918;7.092;2023-07-02T01:56:34;24.60;;;8.20;;
3698;SDS011;1865;50.918;7.092;2023-07-02T01:59:00;21.00;;;6.90;;
3698;SDS011;1865;50.918;7.092;2023-07-02T02:01:25;20.10;;;7.57;;
3698;SDS011;1865;50.918;7.092;2023-07-02T02:03:51;20.43;;;7.93;;
3698;SDS011;1865;50.918;7.092;2023-07-02T02:06:16;23.63;;;8.07;;
3698;SDS011;1865;50.918;7.092;2023-07-02T02:08:42;21.37;;;8.73;;
3698;SDS011;1865;50.918;7.092;2023-07-02T02:11:07;22.90;;;8.40;;
3698;SDS011;1865;50.918;7.092;2023-07-02T02:13:33;21.67;;;9.57;;
3698;SDS011;1865;50.918;7.092;2023-07-02T02:15:58;19.53;;;8.40;;
3698;SDS011;1865;50.918;7.092;2023-07-02T02:18:24;25.70;;;9.77;;
3698;SDS011;1865;50.918;7.092;2023-07-02T02:20:49;23.60;;;8.83;;
3698;SDS011;1865;50.918;7.092;2023-07-02T02:23:15;30.70;;;10.37;;
3698;SDS011;1865;50.918;7.092;2023-07-02T02:25:40;23.37;;;8.93;;
3698;SDS011;1865;50.918;7.092;2023-07-02T02:28:06;21.20;;;8.70;;
3698;SDS011;1865;50.918;7.092;2023-07-02T02:30:31;30.83;;;9.90;;
3698;SDS011;1865;50.918;7.092;2023-07-02T02:32:57;26.20;;;10.47;;
3698;SDS011;1865;50.918;7.092;2023-07-02T02:35:22;24.10;;;10.43;;
3698;SDS011;1865;50.918;7.092;2023-07-02T02:37:48;24.40;;;9.53;;
3698;SDS011;1865;50.918;7.092;2023-07-02T02:40:14;23.57;;;9.13;;
3698;SDS011;1865;50.918;7.092;2023-07-02T02:42:40;22.47;;;9.03;;
3698;SDS011;1865;50.918;7.092;2023-07-02T02:45:05;24.27;;;8.73;;
3698;SDS011;1865;50.918;7.092;2023-07-02T02:47:31;25.50;;;9.17;;
3698;SDS011;1865;50.918;7.092;2023-07-02T02:49:57;29.70;;;10.03;;
3698;SDS011;1865;50.918;7.092;2023-07-02T02:52:22;27.40;;;9.60;;
3698;SDS011;1865;50.918;7.092;2023-07-02T02:54:49;22.70;;;9.80;;
3698;SDS011;1865;50.918;7.092;2023-07-02T02:57:17;22.77;;;8.67;;
3698;SDS011;1865;50.918;7.092;2023-07-02T02:59:43;25.57;;;9.97;;
3698;SDS011;1865;50.918;7.092;2023-07-02T03:02:08;28.07;;;9.27;;
3698;SDS011;1865;50.918;7.092;2023-07-02T03:04:34;21.53;;;10.00;;
3698;SDS011;1865;50.918;7.092;2023-07-02T03:07:00;25.93;;;10.87;;
3698;SDS011;1865;50.918;7.092;2023-07-02T03:09:25;27.87;;;10.07;;
3698;SDS011;1865;50.918;7.092;2023-07-02T03:11:51;20.70;;;9.70;;
3698;SDS011;1865;50.918;7.092;2023-07-02T03:14:16;21.93;;;10.73;;
3698;SDS011;1865;50.918;7.092;2023-07-02T03:16:42;31.33;;;9.90;;
3698;SDS011;1865;50.918;7.092;2023-07-02T03:19:10;33.47;;;11.70;;
3698;SDS011;1865;50.918;7.092;2023-07-02T03:21:35;28.30;;;11.57;;
3698;SDS011;1865;50.918;7.092;2023-07-02T03:24:01;26.20;;;10.40;;
3698;SDS011;1865;50.918;7.092;2023-07-02T03:26:27;27.87;;;11.57;;
3698;SDS011;1865;50.918;7.092;2023-07-02T03:28:52;24.17;;;10.87;;
3698;SDS011;1865;50.918;7.092;2023-07-02T03:31:18;35.27;;;11.40;;
3698;SDS011;1865;50.918;7.092;2023-07-02T03:33:43;26.47;;;10.97;;
3698;SDS011;1865;50.918;7.092;2023-07-02T03:36:09;28.20;;;11.40;;
3698;SDS011;1865;50.918;7.092;2023-07-02T03:38:34;28.53;;;11.27;;
3698;SDS011;1865;50.918;7.092;2023-07-02T03:41:00;29.70;;;12.37;;
3698;SDS011;1865;50.918;7.092;2023-07-02T03:43:25;40.63;;;12.53;;
3698;SDS011;1865;50.918;7.092;2023-07-02T03:45:54;29.70;;;12.90;;
3698;SDS011;1865;50.918;7.092;2023-07-02T03:48:19;31.13;;;11.90;;
3698;SDS011;1865;50.918;7.092;2023-07-02T03:50:45;35.87;;;12.03;;
3698;SDS011;1865;50.918;7.092;2023-07-02T03:53:10;33.17;;;13.67;;
3698;SDS011;1865;50.918;7.092;2023-07-02T03:55:36;32.87;;;12.93;;
3698;SDS011;1865;50.918;7.092;2023-07-02T03:58:01;29.47;;;12.90;;
3698;SDS011;1865;50.918;7.092;2023-07-02T04:00:27;30.80;;;13.57;;
3698;SDS011;1865;50.918;7.092;2023-07-02T04:02:52;37.60;;;13.40;;
3698;SDS011;1865;50.918;7.092;2023-07-02T04:05:18;36.33;;;13.30;;
3698;SDS011;1865;50.918;7.092;2023-07-02T04:07:45;33.10;;;14.40;;
3698;SDS011;1865;50.918;7.092;2023-07-02T04:10:10;27.87;;;12.63;;
3698;SDS011;1865;50.918;7.092;2023-07-02T04:12:36;33.40;;;13.80;;
3698;SDS011;1865;50.918;7.092;2023-07-02T04:15:01;34.47;;;13.70;;
3698;SDS011;1865;50.918;7.092;2023-07-02T04:17:28;30.30;;;13.40;;
3698;SDS011;1865;50.918;7.092;2023-07-02T04:19:54;45.43;;;12.93;;
3698;SDS011;1865;50.918;7.092;2023-07-02T04:22:20;34.63;;;13.10;;
3698;SDS011;1865;50.918;7.092;2023-07-02T04:24:45;29.83;;;13.07;;
3698;SDS011;1865;50.918;7.092;2023-07-02T04:27:13;33.03;;;15.10;;
3698;SDS011;1865;50.918;7.092;2023-07-02T04:29:45;35.97;;;14.93;;
3698;SDS011;1865;50.918;7.092;2023-07-02T04:32:10;33.80;;;14.83;;
3698;SDS011;1865;50.918;7.092;2023-07-02T04:34:36;41.77;;;15.67;;
3698;SDS011;1865;50.918;7.092;2023-07-02T04:37:03;29.17;;;14.40;;
3698;SDS011;1865;50.918;7.092;2023-07-02T04:39:29;34.23;;;15.50;;
3698;SDS011;1865;50.918;7.092;2023-07-02T04:41:54;36.70;;;16.37;;
3698;SDS011;1865;50.918;7.092;2023-07-02T04:44:20;32.90;;;15.30;;
3698;SDS011;1865;50.918;7.092;2023-07-02T04:46:57;36.13;;;15.70;;
3698;SDS011;1865;50.918;7.092;2023-07-02T04:49:24;34.63;;;16.63;;
3698;SDS011;1865;50.918;7.092;2023-07-02T04:51:50;41.10;;;15.87;;
3698;SDS011;1865;50.918;7.092;2023-07-02T04:54:15;35.40;;;15.93;;
3698;SDS011;1865;50.918;7.092;2023-07-02T04:56:41;42.20;;;17.10;;
3698;SDS011;1865;50.918;7.092;2023-07-02T04:59:06;38.67;;;16.40;;
3698;SDS011;1865;50.918;7.092;2023-07-02T05:01:32;36.03;;;14.90;;
3698;SDS011;1865;50.918;7.092;2023-07-02T05:03:57;40.87;;;17.47;;
3698;SDS011;1865;50.918;7.092;2023-07-02T05:06:23;35.73;;;15.57;;
3698;SDS011;1865;50.918;7.092;2023-07-02T05:08:48;40.87;;;15.77;;
3698;SDS011;1865;50.918;7.092;2023-07-02T05:11:14;37.70;;;17.87;;
3698;SDS011;1865;50.918;7.092;2023-07-02T05:13:39;35.67;;;16.77;;
3698;SDS011;1865;50.918;7.092;2023-07-02T05:16:05;46.00;;;19.27;;
3698;SDS011;1865;50.918;7.092;2023-07-02T05:18:30;44.33;;;17.70;;
3698;SDS011;1865;50.918;7.092;2023-07-02T05:20:56;39.17;;;17.30;;
3698;SDS011;1865;50.918;7.092;2023-07-02T05:23:21;37.37;;;16.50;;
3698;SDS011;1865;50.918;7.092;2023-07-02T05:25:47;44.03;;;17.67;;
3698;SDS011;1865;50.918;7.092;2023-07-02T05:28:12;36.93;;;17.10;;
3698;SDS011;1865;50.918;7.092;2023-07-02T05:30:38;42.70;;;17.43;;
3698;SDS011;1865;50.918;7.092;2023-07-02T05:33:03;41.57;;;17.40;;
3698;SDS011;1865;50.918;7.092;2023-07-02T05:35:29;47.10;;;19.50;;
3698;SDS011;1865;50.918;7.092;2023-07-02T05:37:54;44.20;;;17.20;;
3698;SDS011;1865;50.918;7.092;2023-07-02T05:40:20;46.33;;;18.80;;
3698;SDS011;1865;50.918;7.092;2023-07-02T05:42:45;40.70;;;19.57;;
3698;SDS011;1865;50.918;7.092;2023-07-02T05:45:11;42.33;;;17.93;;
3698;SDS011;1865;50.918;7.092;2023-07-02T05:47:36;38.53;;;18.07;;
3698;SDS011;1865;50.918;7.092;2023-07-02T05:50:02;51.23;;;19.20;;
3698;SDS011;1865;50.918;7.092;2023-07-02T05:52:28;47.43;;;19.37;;
3698;SDS011;1865;50.918;7.092;2023-07-02T05:54:53;45.90;;;18.97;;
3698;SDS011;1865;50.918;7.092;2023-07-02T05:57:19;42.77;;;19.20;;
3698;SDS011;1865;50.918;7.092;2023-07-02T05:59:44;40.80;;;19.63;;
3698;SDS011;1865;50.918;7.092;2023-07-02T06:02:10;50.70;;;20.60;;
3698;SDS011;1865;50.918;7.092;2023-07-02T06:04:35;40.83;;;18.80;;
3698;SDS011;1865;50.918;7.092;2023-07-02T06:07:01;45.03;;;18.90;;
3698;SDS011;1865;50.918;7.092;2023-07-02T06:09:26;42.27;;;20.30;;
3698;SDS011;1865;50.918;7.092;2023-07-02T06:11:52;48.97;;;19.30;;
3698;SDS011;1865;50.918;7.092;2023-07-02T06:14:17;43.70;;;18.70;;
3698;SDS011;1865;50.918;7.092;2023-07-02T06:16:43;42.97;;;18.07;;
3698;SDS011;1865;50.918;7.092;2023-07-02T06:19:08;38.80;;;18.20;;
3698;SDS011;1865;50.918;7.092;2023-07-02T06:21:34;39.27;;;18.23;;
3698;SDS011;1865;50.918;7.092;2023-07-02T06:24:00;44.37;;;18.40;;
3698;SDS011;1865;50.918;7.092;2023-07-02T06:26:26;42.47;;;19.50;;
3698;SDS011;1865;50.918;7.092;2023-07-02T06:28:52;45.83;;;18.70;;
3698;SDS011;1865;50.918;7.092;2023-07-02T06:31:17;46.43;;;17.87;;
3698;SDS011;1865;50.918;7.092;2023-07-02T06:33:43;43.70;;;18.80;;
3698;SDS011;1865;50.918;7.092;2023-07-02T06:36:09;42.90;;;18.90;;
3698;SDS011;1865;50.918;7.092;2023-07-02T06:38:34;43.40;;;18.00;;
3698;SDS011;1865;50.918;7.092;2023-07-02T06:41:00;43.33;;;17.63;;
3698;SDS011;1865;50.918;7.092;2023-07-02T06:43:25;47.37;;;20.30;;
3698;SDS011;1865;50.918;7.092;2023-07-02T06:45:51;45.70;;;18.17;;
3698;SDS011;1865;50.918;7.092;2023-07-02T06:48:16;44.50;;;18.47;;
3698;SDS011;1865;50.918;7.092;2023-07-02T06:50:46;43.50;;;17.37;;
3698;SDS011;1865;50.918;7.092;2023-07-02T06:53:11;44.17;;;18.60;;
3698;SDS011;1865;50.918;7.092;2023-07-02T06:55:37;47.33;;;18.60;;
3698;SDS011;1865;50.918;7.092;2023-07-02T06:58:04;54.80;;;18.77;;
3698;SDS011;1865;50.918;7.092;2023-07-02T07:00:31;35.13;;;16.30;;
3698;SDS011;1865;50.918;7.092;2023-07-02T07:03:00;47.07;;;18.53;;
3698;SDS011;1865;50.918;7.092;2023-07-02T07:05:26;42.13;;;18.37;;
3698;SDS011;1865;50.918;7.092;2023-07-02T07:07:52;51.13;;;19.10;;
3698;SDS011;1865;50.918;7.092;2023-07-02T07:10:17;44.13;;;18.70;;
3698;SDS011;1865;50.918;7.092;2023-07-02T07:12:45;42.03;;;17.90;;
3698;SDS011;1865;50.918;7.092;2023-07-02T07:15:10;52.13;;;19.17;;
3698;SDS011;1865;50.918;7.092;2023-07-02T07:17:36;45.60;;;17.30;;
3698;SDS011;1865;50.918;7.092;2023-07-02T07:20:01;46.87;;;17.67;;
3698;SDS011;1865;50.918;7.092;2023-07-02T07:22:29;38.33;;;17.43;;
3698;SDS011;1865;50.918;7.092;2023-07-02T07:24:55;45.67;;;18.17;;
3698;SDS011;1865;50.918;7.092;2023-07-02T07:27:21;48.03;;;16.97;;
3698;SDS011;1865;50.918;7.092;2023-07-02T07:29:46;37.13;;;16.83;;
3698;SDS011;1865;50.918;7.092;2023-07-02T07:32:12;38.27;;;16.27;;
3698;SDS011;1865;50.918;7.092;2023-07-02T07:34:37;43.33;;;17.77;;
3698;SDS011;1865;50.918;7.092;2023-07-02T07:37:03;38.73;;;16.70;;
3698;SDS011;1865;50.918;7.092;2023-07-02T07:39:29;40.47;;;17.17;;
3698;SDS011;1865;50.918;7.092;2023-07-02T07:41:55;33.63;;;14.97;;
3698;SDS011;1865;50.918;7.092;2023-07-02T07:44:20;36.10;;;13.93;;
3698;SDS011;1865;50.918;7.092;2023-07-02T07:46:46;35.03;;;14.47;;
3698;SDS011;1865;50.918;7.092;2023-07-02T07:49:12;32.90;;;14.60;;
3698;SDS011;1865;50.918;7.092;2023-07-02T07:51:38;35.87;;;14.20;;
3698;SDS011;1865;50.918;7.092;2023-07-02T07:54:04;38.43;;;14.97;;
3698;SDS011;1865;50.918;7.092;2023-07-02T07:56:30;33.83;;;14.30;;
3698;SDS011;1865;50.918;7.092;2023-07-02T07:58:55;36.83;;;14.13;;
3698;SDS011;1865;50.918;7.092;2023-07-02T08:01:21;31.23;;;12.30;;
3698;SDS011;1865;50.918;7.092;2023-07-02T08:03:46;36.40;;;13.13;;
3698;SDS011;1865;50.918;7.092;2023-07-02T08:06:12;37.23;;;13.63;;
3698;SDS011;1865;50.918;7.092;2023-07-02T08:08:37;37.83;;;14.50;;
3698;SDS011;1865;50.918;7.092;2023-07-02T08:11:03;38.27;;;15.40;;
3698;SDS011;1865;50.918;7.092;2023-07-02T08:13:28;35.17;;;15.40;;
3698;SDS011;1865;50.918;7.092;2023-07-02T08:15:54;35.73;;;14.07;;
3698;SDS011;1865;50.918;7.092;2023-07-02T08:18:19;49.90;;;14.50;;
3698;SDS011;1865;50.918;7.092;2023-07-02T08:20:45;37.37;;;14.57;;
3698;SDS011;1865;50.918;7.092;2023-07-02T08:23:10;40.97;;;14.60;;
3698;SDS011;1865;50.918;7.092;2023-07-02T08:25:36;30.07;;;13.23;;
3698;SDS011;1865;50.918;7.092;2023-07-02T08:28:02;33.77;;;13.57;;
3698;SDS011;1865;50.918;7.092;2023-07-02T08:30:28;35.23;;;14.43;;
3698;SDS011;1865;50.918;7.092;2023-07-02T08:32:53;32.30;;;12.93;;
3698;SDS011;1865;50.918;7.092;2023-07-02T08:35:20;34.23;;;13.50;;
3698;SDS011;1865;50.918;7.092;2023-07-02T08:37:45;40.03;;;14.63;;
3698;SDS011;1865;50.918;7.092;2023-07-02T08:40:20;35.30;;;13.50;;
3698;SDS011;1865;50.918;7.092;2023-07-02T08:42:45;46.10;;;14.63;;
3698;SDS011;1865;50.918;7.092;2023-07-02T08:45:14;41.40;;;14.93;;
3698;SDS011;1865;50.918;7.092;2023-07-02T08:47:41;38.70;;;13.77;;
3698;SDS011;1865;50.918;7.092;2023-07-02T08:50:08;36.47;;;14.40;;
3698;SDS011;1865;50.918;7.092;2023-07-02T08:52:34;36.47;;;13.67;;
3698;SDS011;1865;50.918;7.092;2023-07-02T08:54:59;34.63;;;13.77;;
3698;SDS011;1865;50.918;7.092;2023-07-02T08:57:25;35.03;;;13.10;;
3698;SDS011;1865;50.918;7.092;2023-07-02T08:59:50;39.13;;;14.77;;
3698;SDS011;1865;50.918;7.092;2023-07-02T09:02:16;35.60;;;14.97;;
3698;SDS011;1865;50.918;7.092;2023-07-02T09:04:42;37.80;;;15.50;;
3698;SDS011;1865;50.918;7.092;2023-07-02T09:07:08;41.70;;;16.88;;
3698;SDS011;1865;50.918;7.092;2023-07-02T09:09:44;43.00;;;15.73;;
3698;SDS011;1865;50.918;7.092;2023-07-02T09:12:26;42.03;;;16.70;;
3698;SDS011;1865;50.918;7.092;2023-07-02T09:14:57;39.37;;;14.33;;
3698;SDS011;1865;50.918;7.092;2023-07-02T09:17:27;39.10;;;14.50;;
3698;SDS011;1865;50.918;7.092;2023-07-02T09:19:57;43.93;;;15.70;;
3698;SDS011;1865;50.918;7.092;2023-07-02T09:22:25;43.00;;;16.20;;
3698;SDS011;1865;50.918;7.092;2023-07-02T09:24:55;35.53;;;15.13;;
3698;SDS011;1865;50.918;7.092;2023-07-02T09:27:38;44.77;;;16.43;;
3698;SDS011;1865;50.918;7.092;2023-07-02T09:30:10;43.70;;;15.67;;
3698;SDS011;1865;50.918;7.092;2023-07-02T09:32:43;38.93;;;14.00;;
3698;SDS011;1865;50.918;7.092;2023-07-02T09:35:10;36.10;;;12.90;;
3698;SDS011;1865;50.918;7.092;2023-07-02T09:37:36;32.47;;;12.87;;
3698;SDS011;1865;50.918;7.092;2023-07-02T09:40:02;36.40;;;14.57;;
3698;SDS011;1865;50.918;7.092;2023-07-02T09:42:31;40.00;;;12.87;;
3698;SDS011;1865;50.918;7.092;2023-07-02T09:44:58;39.37;;;15.83;;
3698;SDS011;1865;50.918;7.092;2023-07-02T09:47:25;38.37;;;14.70;;
3698;SDS011;1865;50.918;7.092;2023-07-02T09:49:55;37.63;;;14.27;;
3698;SDS011;1865;50.918;7.092;2023-07-02T09:52:24;43.13;;;16.20;;
3698;SDS011;1865;50.918;7.092;2023-07-02T09:54:52;39.17;;;14.57;;
3698;SDS011;1865;50.918;7.092;2023-07-02T09:57:18;36.70;;;13.70;;
3698;SDS011;1865;50.918;7.092;2023-07-02T09:59:43;39.27;;;15.67;;
3698;SDS011;1865;50.918;7.092;2023-07-02T10:02:09;45.87;;;15.33;;
3698;SDS011;1865;50.918;7.092;2023-07-02T10:04:39;40.80;;;16.00;;
3698;SDS011;1865;50.918;7.092;2023-07-02T10:07:09;43.80;;;17.60;;
3698;SDS011;1865;50.918;7.092;2023-07-02T10:09:36;38.57;;;14.43;;
3698;SDS011;1865;50.918;7.092;2023-07-02T10:12:18;35.60;;;15.07;;
3698;SDS011;1865;50.918;7.092;2023-07-02T10:14:52;37.57;;;15.87;;
3698;SDS011;1865;50.918;7.092;2023-07-02T10:20:00;30.60;;;13.40;;
3698;SDS011;1865;50.918;7.092;2023-07-02T10:22:44;37.60;;;15.77;;
3698;SDS011;1865;50.918;7.092;2023-07-02T10:25:25;40.67;;;15.40;;
3698;SDS011;1865;50.918;7.092;2023-07-02T10:27:55;41.17;;;15.97;;
3698;SDS011;1865;50.918;7.092;2023-07-02T10:30:31;32.73;;;14.60;;
3698;SDS011;1865;50.918;7.092;2023-07-02T10:33:07;34.40;;;14.23;;
3698;SDS011;1865;50.918;7.092;2023-07-02T10:35:34;36.73;;;15.60;;
3698;SDS011;1865;50.918;7.092;2023-07-02T10:37:59;39.17;;;15.13;;
3698;SDS011;1865;50.918;7.092;2023-07-02T10:40:25;33.63;;;15.27;;
3698;SDS011;1865;50.918;7.092;2023-07-02T10:42:51;34.97;;;14.40;;
3698;SDS011;1865;50.918;7.092;2023-07-02T10:45:18;41.57;;;16.83;;
3698;SDS011;1865;50.918;7.092;2023-07-02T10:47:44;38.97;;;15.60;;
3698;SDS011;1865;50.918;7.092;2023-07-02T10:50:20;40.73;;;15.70;;
3698;SDS011;1865;50.918;7.092;2023-07-02T10:52:47;37.93;;;14.43;;
3698;SDS011;1865;50.918;7.092;2023-07-02T10:55:22;34.47;;;15.07;;
3698;SDS011;1865;50.918;7.092;2023-07-02T10:57:49;32.87;;;13.57;;
3698;SDS011;1865;50.918;7.092;2023-07-02T11:00:18;36.90;;;14.30;;
3698;SDS011;1865;50.918;7.092;2023-07-02T11:02:44;37.73;;;14.50;;
3698;SDS011;1865;50.918;7.092;2023-07-02T11:05:10;34.77;;;13.60;;
3698;SDS011;1865;50.918;7.092;2023-07-02T11:07:38;37.07;;;13.63;;
3698;SDS011;1865;50.918;7.092;2023-07-02T11:10:04;33.10;;;13.53;;
3698;SDS011;1865;50.918;7.092;2023-07-02T11:12:31;32.83;;;12.97;;
3698;SDS011;1865;50.918;7.092;2023-07-02T11:15:13;38.00;;;14.07;;
3698;SDS011;1865;50.918;7.092;2023-07-02T11:17:39;32.50;;;12.67;;
3698;SDS011;1865;50.918;7.092;2023-07-02T11:20:07;37.07;;;14.10;;
3698;SDS011;1865;50.918;7.092;2023-07-02T11:22:34;30.70;;;13.57;;
3698;SDS011;1865;50.918;7.092;2023-07-02T11:25:18;35.60;;;13.77;;
3698;SDS011;1865;50.918;7.092;2023-07-02T11:27:45;40.27;;;14.47;;
3698;SDS011;1865;50.918;7.092;2023-07-02T11:30:11;32.73;;;13.40;;
3698;SDS011;1865;50.918;7.092;2023-07-02T11:32:50;34.17;;;14.07;;
3698;SDS011;1865;50.918;7.092;2023-07-02T11:35:17;34.33;;;12.73;;
3698;SDS011;1865;50.918;7.092;2023-07-02T11:37:42;33.03;;;13.07;;
3698;SDS011;1865;50.918;7.092;2023-07-02T11:40:09;36.40;;;12.73;;
3698;SDS011;1865;50.918;7.092;2023-07-02T11:42:35;34.00;;;14.20;;
3698;SDS011;1865;50.918;7.092;2023-07-02T11:45:01;34.53;;;13.60;;
3698;SDS011;1865;50.918;7.092;2023-07-02T11:47:27;28.43;;;13.53;;
3698;SDS011;1865;50.918;7.092;2023-07-02T11:49:53;30.33;;;14.27;;
3698;SDS011;1865;50.918;7.092;2023-07-02T11:52:20;33.37;;;14.10;;
3698;SDS011;1865;50.918;7.092;2023-07-02T11:54:45;31.27;;;13.50;;
3698;SDS011;1865;50.918;7.092;2023-07-02T11:57:11;45.07;;;14.37;;
3698;SDS011;1865;50.918;7.092;2023-07-02T11:59:37;31.60;;;13.20;;
3698;SDS011;1865;50.918;7.092;2023-07-02T12:02:03;42.40;;;15.47;;
3698;SDS011;1865;50.918;7.092;2023-07-02T12:04:29;34.97;;;14.37;;
3698;SDS011;1865;50.918;7.092;2023-07-02T12:06:54;33.17;;;13.20;;
3698;SDS011;1865;50.918;7.092;2023-07-02T12:09:20;33.93;;;12.33;;
3698;SDS011;1865;50.918;7.092;2023-07-02T12:11:45;34.23;;;13.77;;
3698;SDS011;1865;50.918;7.092;2023-07-02T12:14:11;39.63;;;14.83;;
3698;SDS011;1865;50.918;7.092;2023-07-02T12:16:37;39.33;;;13.30;;
3698;SDS011;1865;50.918;7.092;2023-07-02T12:19:02;34.30;;;14.10;;
3698;SDS011;1865;50.918;7.092;2023-07-02T12:21:28;30.17;;;13.30;;
3698;SDS011;1865;50.918;7.092;2023-07-02T12:23:53;28.50;;;12.13;;
3698;SDS011;1865;50.918;7.092;2023-07-02T12:26:19;36.93;;;12.70;;
3698;SDS011;1865;50.918;7.092;2023-07-02T12:28:45;33.27;;;12.50;;
3698;SDS011;1865;50.918;7.092;2023-07-02T12:31:10;32.60;;;12.57;;
3698;SDS011;1865;50.918;7.092;2023-07-02T12:33:37;30.23;;;12.70;;
3698;SDS011;1865;50.918;7.092;2023-07-02T12:36:03;37.00;;;12.87;;
3698;SDS011;1865;50.918;7.092;2023-07-02T12:38:29;33.30;;;11.50;;
3698;SDS011;1865;50.918;7.092;2023-07-02T12:40:54;27.67;;;10.90;;
3698;SDS011;1865;50.918;7.092;2023-07-02T12:43:20;25.90;;;10.90;;
3698;SDS011;1865;50.918;7.092;2023-07-02T12:45:46;26.97;;;10.10;;
3698;SDS011;1865;50.918;7.092;2023-07-02T12:48:12;26.10;;;10.03;;
3698;SDS011;1865;50.918;7.092;2023-07-02T12:50:38;29.23;;;9.67;;
3698;SDS011;1865;50.918;7.092;2023-07-02T12:53:04;29.33;;;10.10;;
3698;SDS011;1865;50.918;7.092;2023-07-02T12:55:30;24.87;;;8.57;;
3698;SDS011;1865;50.918;7.092;2023-07-02T12:57:56;26.87;;;8.80;;
3698;SDS011;1865;50.918;7.092;2023-07-02T13:00:21;24.60;;;9.70;;
3698;SDS011;1865;50.918;7.092;2023-07-02T13:02:47;25.23;;;9.33;;
3698;SDS011;1865;50.918;7.092;2023-07-02T13:05:13;21.87;;;9.20;;
3698;SDS011;1865;50.918;7.092;2023-07-02T13:07:39;23.73;;;9.23;;
3698;SDS011;1865;50.918;7.092;2023-07-02T13:10:04;21.20;;;8.97;;
3698;SDS011;1865;50.918;7.092;2023-07-02T13:12:30;23.47;;;8.87;;
3698;SDS011;1865;50.918;7.092;2023-07-02T13:14:56;26.23;;;8.83;;
3698;SDS011;1865;50.918;7.092;2023-07-02T13:17:21;31.50;;;9.27;;
3698;SDS011;1865;50.918;7.092;2023-07-02T13:19:47;23.80;;;9.07;;
3698;SDS011;1865;50.918;7.092;2023-07-02T13:22:13;27.37;;;9.33;;
3698;SDS011;1865;50.918;7.092;2023-07-02T13:24:39;25.60;;;9.47;;
3698;SDS011;1865;50.918;7.092;2023-07-02T13:27:06;33.57;;;10.67;;
3698;SDS011;1865;50.918;7.092;2023-07-02T13:29:36;29.23;;;11.10;;
3698;SDS011;1865;50.918;7.092;2023-07-02T13:32:01;34.63;;;9.77;;
3698;SDS011;1865;50.918;7.092;2023-07-02T13:34:27;29.07;;;10.40;;
3698;SDS011;1865;50.918;7.092;2023-07-02T13:36:52;27.23;;;10.17;;
3698;SDS011;1865;50.918;7.092;2023-07-02T13:39:18;28.43;;;10.90;;
3698;SDS011;1865;50.918;7.092;2023-07-02T13:41:44;28.83;;;10.80;;
3698;SDS011;1865;50.918;7.092;2023-07-02T13:44:09;25.73;;;10.37;;
3698;SDS011;1865;50.918;7.092;2023-07-02T13:46:35;31.30;;;11.77;;
3698;SDS011;1865;50.918;7.092;2023-07-02T13:49:00;29.63;;;10.47;;
3698;SDS011;1865;50.918;7.092;2023-07-02T13:51:26;30.20;;;10.97;;
3698;SDS011;1865;50.918;7.092;2023-07-02T13:53:51;29.80;;;11.60;;
3698;SDS011;1865;50.918;7.092;2023-07-02T13:56:17;28.40;;;10.67;;
3698;SDS011;1865;50.918;7.092;2023-07-02T13:58:47;29.83;;;11.53;;
3698;SDS011;1865;50.918;7.092;2023-07-02T14:01:22;30.87;;;10.80;;
3698;SDS011;1865;50.918;7.092;2023-07-02T14:03:48;25.90;;;10.67;;
3698;SDS011;1865;50.918;7.092;2023-07-02T14:06:14;27.87;;;11.20;;
3698;SDS011;1865;50.918;7.092;2023-07-02T14:08:40;24.83;;;10.20;;
3698;SDS011;1865;50.918;7.092;2023-07-02T14:11:06;23.30;;;9.97;;
3698;SDS011;1865;50.918;7.092;2023-07-02T14:13:31;26.30;;;10.40;;
3698;SDS011;1865;50.918;7.092;2023-07-02T14:15:57;32.80;;;10.10;;
3698;SDS011;1865;50.918;7.092;2023-07-02T14:18:23;22.03;;;9.30;;
3698;SDS011;1865;50.918;7.092;2023-07-02T14:20:49;29.83;;;11.30;;
3698;SDS011;1865;50.918;7.092;2023-07-02T14:23:14;26.73;;;10.83;;
3698;SDS011;1865;50.918;7.092;2023-07-02T14:25:40;33.33;;;11.80;;
3698;SDS011;1865;50.918;7.092;2023-07-02T14:28:05;26.13;;;9.77;;
3698;SDS011;1865;50.918;7.092;2023-07-02T14:30:31;38.63;;;12.17;;
3698;SDS011;1865;50.918;7.092;2023-07-02T14:32:56;25.53;;;10.97;;
3698;SDS011;1865;50.918;7.092;2023-07-02T14:35:22;30.13;;;10.43;;
3698;SDS011;1865;50.918;7.092;2023-07-02T14:37:51;26.90;;;10.87;;
3698;SDS011;1865;50.918;7.092;2023-07-02T14:40:17;29.77;;;11.43;;
3698;SDS011;1865;50.918;7.092;2023-07-02T14:42:42;32.77;;;11.77;;
3698;SDS011;1865;50.918;7.092;2023-07-02T14:45:08;26.83;;;11.20;;
3698;SDS011;1865;50.918;7.092;2023-07-02T14:47:37;28.03;;;11.43;;
3698;SDS011;1865;50.918;7.092;2023-07-02T14:50:03;27.03;;;11.20;;